sensor_id;sensor_type;location;lat;lon;timestamp;pressure;altitude;pressure_sealevel;temperature;humidity
35307;BME280;21420;52.196;21.416;2023-09-30T00:02:00;100442.42;;;14.86;55.37
35307;BME280;21420;52.196;21.416;2023-09-30T00:04:26;100443.86;;;14.87;55.35
35307;BME280;21420;52.196;21.416;2023-09-30T00:06:53;100446.07;;;14.90;55.46
35307;BME280;21420;52.196;21.416;2023-09-30T00:09:19;100441.48;;;14.94;55.61
35307;BME280;21420;52.196;21.416;2023-09-30T00:11:45;100443.67;;;15.05;55.75
35307;BME280;21420;52.196;21.416;2023-09-30T00:14:11;100436.85;;;15.16;55.70
35307;BME280;21420;52.196;21.416;2023-09-30T00:16:37;100436.88;;;15.21;55.79
35307;BME280;21420;52.196;21.416;2023-09-30T00:19:03;100436.15;;;15.33;55.80
35307;BME280;21420;52.196;21.416;2023-09-30T00:21:29;100432.83;;;15.42;55.76
35307;BME280;21420;52.196;21.416;2023-09-30T00:23:55;100432.27;;;15.50;55.80
35307;BME280;21420;52.196;21.416;2023-09-30T00:26:22;100431.37;;;15.57;55.65
35307;BME280;21420;52.196;21.416;2023-09-30T00:28:48;100428.59;;;15.61;55.60
35307;BME280;21420;52.196;21.416;2023-09-30T00:31:14;100428.14;;;15.62;55.59
35307;BME280;21420;52.196;21.416;2023-09-30T00:33:41;100430.70;;;15.65;55.47
35307;BME280;21420;52.196;21.416;2023-09-30T00:36:08;100429.41;;;15.67;55.54
35307;BME280;21420;52.196;21.416;2023-09-30T00:38:36;100427.13;;;15.68;55.57
35307;BME280;21420;52.196;21.416;2023-09-30T00:41:03;100422.40;;;15.67;55.38
35307;BME280;21420;52.196;21.416;2023-09-30T00:43:29;100422.46;;;15.67;55.42
35307;BME280;21420;52.196;21.416;2023-09-30T00:46:06;100422.49;;;15.64;55.32
35307;BME280;21420;52.196;21.416;2023-09-30T00:48:35;100421.58;;;15.61;55.30
35307;BME280;21420;52.196;21.416;2023-09-30T00:51:03;100423.70;;;15.61;55.33
35307;BME280;21420;52.196;21.416;2023-09-30T00:53:29;100421.40;;;15.60;55.28
35307;BME280;21420;52.196;21.416;2023-09-30T00:55:56;100420.12;;;15.59;55.34
35307;BME280;21420;52.196;21.416;2023-09-30T00:58:25;100421.30;;;15.59;55.46
35307;BME280;21420;52.196;21.416;2023-09-30T01:00:56;100421.73;;;15.56;55.36
35307;BME280;21420;52.196;21.416;2023-09-30T01:03:22;100416.27;;;15.51;55.29
35307;BME280;21420;52.196;21.416;2023-09-30T01:05:49;100418.23;;;15.46;55.27
35307;BME280;21420;52.196;21.416;2023-09-30T01:08:16;100417.64;;;15.43;55.30
35307;BME280;21420;52.196;21.416;2023-09-30T01:10:43;100415.80;;;15.42;55.37
35307;BME280;21420;52.196;21.416;2023-09-30T01:13:09;100419.20;;;15.42;55.20
35307;BME280;21420;52.196;21.416;2023-09-30T01:15:35;100419.98;;;15.41;55.34
35307;BME280;21420;52.196;21.416;2023-09-30T01:18:03;100418.63;;;15.40;55.39
35307;BME280;21420;52.196;21.416;2023-09-30T01:20:30;100416.27;;;15.41;55.44
35307;BME280;21420;52.196;21.416;2023-09-30T01:22:57;100415.98;;;15.43;55.44
35307;BME280;21420;52.196;21.416;2023-09-30T01:25:24;100415.48;;;15.45;55.54
35307;BME280;21420;52.196;21.416;2023-09-30T01:27:51;100412.91;;;15.48;55.46
35307;BME280;21420;52.196;21.416;2023-09-30T01:30:18;100413.70;;;15.52;55.62
35307;BME280;21420;52.196;21.416;2023-09-30T01:32:44;100412.11;;;15.56;55.56
35307;BME280;21420;52.196;21.416;2023-09-30T01:35:10;100414.23;;;15.60;55.57
35307;BME280;21420;52.196;21.416;2023-09-30T01:37:38;100416.04;;;15.65;55.61
35307;BME280;21420;52.196;21.416;2023-09-30T01:40:04;100413.77;;;15.70;55.55
35307;BME280;21420;52.196;21.416;2023-09-30T01:42:33;100410.02;;;15.76;55.69
35307;BME280;21420;52.196;21.416;2023-09-30T01:45:01;100404.06;;;15.83;55.64
35307;BME280;21420;52.196;21.416;2023-09-30T01:47:27;100406.61;;;15.90;55.66
35307;BME280;21420;52.196;21.416;2023-09-30T01:49:53;100405.92;;;15.96;55.63
35307;BME280;21420;52.196;21.416;2023-09-30T01:52:20;100405.28;;;16.02;55.58
35307;BME280;21420;52.196;21.416;2023-09-30T01:54:46;100403.93;;;16.07;55.57
35307;BME280;21420;52.196;21.416;2023-09-30T01:57:13;100399.03;;;16.12;55.61
35307;BME280;21420;52.196;21.416;2023-09-30T01:59:39;100395.93;;;16.16;55.50
35307;BME280;21420;52.196;21.416;2023-09-30T02:02:05;100396.38;;;16.20;55.52
35307;BME280;21420;52.196;21.416;2023-09-30T02:04:31;100397.16;;;16.25;55.39
35307;BME280;21420;52.196;21.416;2023-09-30T02:06:57;100394.79;;;16.29;55.40
35307;BME280;21420;52.196;21.416;2023-09-30T02:09:24;100399.80;;;16.33;55.54
35307;BME280;21420;52.196;21.416;2023-09-30T02:11:51;100397.84;;;16.35;55.49
35307;BME280;21420;52.196;21.416;2023-09-30T02:14:18;100395.95;;;16.35;55.35
35307;BME280;21420;52.196;21.416;2023-09-30T02:17:04;100394.78;;;16.37;55.22
35307;BME280;21420;52.196;21.416;2023-09-30T02:19:30;100391.98;;;16.39;55.27
35307;BME280;21420;52.196;21.416;2023-09-30T02:21:59;100391.23;;;16.41;55.17
35307;BME280;21420;52.196;21.416;2023-09-30T02:24:25;100392.28;;;16.44;55.18
35307;BME280;21420;52.196;21.416;2023-09-30T02:26:51;100388.52;;;16.45;55.22
35307;BME280;21420;52.196;21.416;2023-09-30T02:29:17;100384.46;;;16.44;55.14
35307;BME280;21420;52.196;21.416;2023-09-30T02:31:43;100385.80;;;16.44;55.25
35307;BME280;21420;52.196;21.416;2023-09-30T02:34:09;100380.20;;;16.43;55.06
35307;BME280;21420;52.196;21.416;2023-09-30T02:36:35;100381.83;;;16.41;54.95
35307;BME280;21420;52.196;21.416;2023-09-30T02:39:05;100382.52;;;16.40;55.02
35307;BME280;21420;52.196;21.416;2023-09-30T02:41:31;100378.04;;;16.40;54.91
35307;BME280;21420;52.196;21.416;2023-09-30T02:43:57;100377.54;;;16.39;55.16
35307;BME280;21420;52.196;21.416;2023-09-30T02:46:23;100378.39;;;16.38;55.11
35307;BME280;21420;52.196;21.416;2023-09-30T02:48:49;100379.39;;;16.36;54.99
35307;BME280;21420;52.196;21.416;2023-09-30T02:51:15;100381.59;;;16.35;54.99
35307;BME280;21420;52.196;21.416;2023-09-30T02:53:41;100378.42;;;16.34;55.00
35307;BME280;21420;52.196;21.416;2023-09-30T02:56:08;100380.08;;;16.34;55.04
35307;BME280;21420;52.196;21.416;2023-09-30T02:58:34;100379.36;;;16.34;55.13
35307;BME280;21420;52.196;21.416;2023-09-30T03:01:00;100374.63;;;16.34;55.00
35307;BME280;21420;52.196;21.416;2023-09-30T03:03:26;100376.20;;;16.34;54.98
35307;BME280;21420;52.196;21.416;2023-09-30T03:05:53;100380.38;;;16.33;55.02
35307;BME280;21420;52.196;21.416;2023-09-30T03:08:20;100383.59;;;16.32;55.07
35307;BME280;21420;52.196;21.416;2023-09-30T03:10:45;100376.88;;;16.31;54.91
35307;BME280;21420;52.196;21.416;2023-09-30T03:13:12;100376.86;;;16.30;54.94
35307;BME280;21420;52.196;21.416;2023-09-30T03:15:37;100371.35;;;16.31;55.15
35307;BME280;21420;52.196;21.416;2023-09-30T03:18:04;100370.48;;;16.31;54.96
35307;BME280;21420;52.196;21.416;2023-09-30T03:20:31;100371.58;;;16.29;55.20
35307;BME280;21420;52.196;21.416;2023-09-30T03:22:57;100373.60;;;16.28;55.03
35307;BME280;21420;52.196;21.416;2023-09-30T03:25:23;100372.39;;;16.27;54.86
35307;BME280;21420;52.196;21.416;2023-09-30T03:27:49;100367.78;;;16.23;54.94
35307;BME280;21420;52.196;21.416;2023-09-30T03:30:16;100371.45;;;16.20;54.88
35307;BME280;21420;52.196;21.416;2023-09-30T03:32:43;100369.13;;;16.18;54.88
35307;BME280;21420;52.196;21.416;2023-09-30T03:35:10;100370.98;;;16.16;55.01
35307;BME280;21420;52.196;21.416;2023-09-30T03:37:37;100367.27;;;16.14;55.00
35307;BME280;21420;52.196;21.416;2023-09-30T03:40:03;100369.85;;;16.14;55.10
35307;BME280;21420;52.196;21.416;2023-09-30T03:42:39;100369.20;;;16.13;54.96
35307;BME280;21420;52.196;21.416;2023-09-30T03:45:06;100371.80;;;16.11;55.03
35307;BME280;21420;52.196;21.416;2023-09-30T03:47:36;100371.68;;;16.09;54.89
35307;BME280;21420;52.196;21.416;2023-09-30T03:50:03;100370.94;;;16.06;54.84
35307;BME280;21420;52.196;21.416;2023-09-30T03:52:32;100370.98;;;16.04;54.99
35307;BME280;21420;52.196;21.416;2023-09-30T03:55:01;100369.88;;;16.03;54.93
35307;BME280;21420;52.196;21.416;2023-09-30T03:57:31;100370.55;;;16.01;55.14
35307;BME280;21420;52.196;21.416;2023-09-30T03:59:57;100370.54;;;16.00;55.13
35307;BME280;21420;52.196;21.416;2023-09-30T04:02:23;100369.16;;;15.98;55.15
35307;BME280;21420;52.196;21.416;2023-09-30T04:04:49;100370.51;;;15.98;55.05
35307;BME280;21420;52.196;21.416;2023-09-30T04:07:18;100371.92;;;15.97;55.01
35307;BME280;21420;52.196;21.416;2023-09-30T04:09:44;100369.55;;;15.97;55.01
35307;BME280;21420;52.196;21.416;2023-09-30T04:12:10;100366.23;;;15.96;55.10
35307;BME280;21420;52.196;21.416;2023-09-30T04:14:36;100362.77;;;15.97;55.13
35307;BME280;21420;52.196;21.416;2023-09-30T04:17:01;100361.98;;;15.98;55.12
35307;BME280;21420;52.196;21.416;2023-09-30T04:19:27;100366.23;;;15.96;55.23
35307;BME280;21420;52.196;21.416;2023-09-30T04:21:56;100365.48;;;15.94;55.32
35307;BME280;21420;52.196;21.416;2023-09-30T04:24:22;100359.54;;;15.92;55.11
35307;BME280;21420;52.196;21.416;2023-09-30T04:26:49;100358.46;;;15.89;55.01
35307;BME280;21420;52.196;21.416;2023-09-30T04:29:16;100357.16;;;15.85;55.31
35307;BME280;21420;52.196;21.416;2023-09-30T04:31:42;100359.88;;;15.83;55.29
35307;BME280;21420;52.196;21.416;2023-09-30T04:34:08;100359.31;;;15.82;55.06
35307;BME280;21420;52.196;21.416;2023-09-30T04:36:34;100364.96;;;15.80;55.15
35307;BME280;21420;52.196;21.416;2023-09-30T04:39:02;100371.67;;;15.80;55.28
35307;BME280;21420;52.196;21.416;2023-09-30T04:41:28;100374.90;;;15.80;55.36
35307;BME280;21420;52.196;21.416;2023-09-30T04:43:54;100374.59;;;15.80;55.37
35307;BME280;21420;52.196;21.416;2023-09-30T04:46:21;100369.23;;;15.80;55.41
35307;BME280;21420;52.196;21.416;2023-09-30T04:48:49;100367.75;;;15.81;55.43
35307;BME280;21420;52.196;21.416;2023-09-30T04:51:18;100367.84;;;15.82;55.42
35307;BME280;21420;52.196;21.416;2023-09-30T04:53:45;100364.76;;;15.81;55.34
35307;BME280;21420;52.196;21.416;2023-09-30T04:56:13;100367.21;;;15.82;55.44
35307;BME280;21420;52.196;21.416;2023-09-30T04:58:39;100367.06;;;15.82;55.57
35307;BME280;21420;52.196;21.416;2023-09-30T05:01:05;100367.39;;;15.84;55.63
35307;BME280;21420;52.196;21.416;2023-09-30T05:03:35;100362.19;;;15.85;55.65
35307;BME280;21420;52.196;21.416;2023-09-30T05:06:01;100360.70;;;15.85;55.82
35307;BME280;21420;52.196;21.416;2023-09-30T05:08:28;100360.25;;;15.86;55.67
35307;BME280;21420;52.196;21.416;2023-09-30T05:10:55;100363.64;;;15.87;55.66
35307;BME280;21420;52.196;21.416;2023-09-30T05:13:22;100359.71;;;15.88;55.76
35307;BME280;21420;52.196;21.416;2023-09-30T05:15:52;100362.78;;;15.87;55.74
35307;BME280;21420;52.196;21.416;2023-09-30T05:18:18;100364.26;;;15.86;55.88
35307;BME280;21420;52.196;21.416;2023-09-30T05:20:44;100369.09;;;15.88;55.71
35307;BME280;21420;52.196;21.416;2023-09-30T05:23:10;100370.72;;;15.91;55.80
35307;BME280;21420;52.196;21.416;2023-09-30T05:25:38;100371.39;;;15.93;55.78
35307;BME280;21420;52.196;21.416;2023-09-30T05:28:05;100372.89;;;15.98;55.83
35307;BME280;21420;52.196;21.416;2023-09-30T05:30:33;100372.16;;;16.03;56.08
35307;BME280;21420;52.196;21.416;2023-09-30T05:33:00;100379.72;;;16.07;55.95
35307;BME280;21420;52.196;21.416;2023-09-30T05:35:26;100378.02;;;16.10;56.16
35307;BME280;21420;52.196;21.416;2023-09-30T05:37:54;100382.73;;;16.14;56.03
35307;BME280;21420;52.196;21.416;2023-09-30T05:40:20;100384.77;;;16.19;56.00
35307;BME280;21420;52.196;21.416;2023-09-30T05:42:53;100385.84;;;16.22;56.01
35307;BME280;21420;52.196;21.416;2023-09-30T05:45:19;100388.27;;;16.21;55.96
35307;BME280;21420;52.196;21.416;2023-09-30T05:47:45;100387.16;;;16.21;56.02
35307;BME280;21420;52.196;21.416;2023-09-30T05:50:13;100388.68;;;16.22;55.97
35307;BME280;21420;52.196;21.416;2023-09-30T05:52:42;100389.72;;;16.23;55.94
35307;BME280;21420;52.196;21.416;2023-09-30T05:55:10;100390.70;;;16.26;55.99
35307;BME280;21420;52.196;21.416;2023-09-30T05:57:36;100390.48;;;16.28;56.15
35307;BME280;21420;52.196;21.416;2023-09-30T06:00:04;100388.39;;;16.30;56.18
35307;BME280;21420;52.196;21.416;2023-09-30T06:02:52;100386.98;;;16.31;55.93
35307;BME280;21420;52.196;21.416;2023-09-30T06:05:19;100391.33;;;16.32;56.12
35307;BME280;21420;52.196;21.416;2023-09-30T06:07:46;100388.44;;;16.34;56.18
35307;BME280;21420;52.196;21.416;2023-09-30T06:10:12;100388.70;;;16.36;56.21
35307;BME280;21420;52.196;21.416;2023-09-30T06:12:41;100389.34;;;16.36;56.19
35307;BME280;21420;52.196;21.416;2023-09-30T06:15:08;100387.77;;;16.37;56.22
35307;BME280;21420;52.196;21.416;2023-09-30T06:17:34;100389.66;;;16.36;55.97
35307;BME280;21420;52.196;21.416;2023-09-30T06:20:00;100389.96;;;16.36;55.98
35307;BME280;21420;52.196;21.416;2023-09-30T06:22:34;100393.02;;;16.35;56.10
35307;BME280;21420;52.196;21.416;2023-09-30T06:25:00;100398.04;;;16.32;56.32
35307;BME280;21420;52.196;21.416;2023-09-30T06:27:26;100403.50;;;16.33;56.35
35307;BME280;21420;52.196;21.416;2023-09-30T06:29:52;100409.91;;;16.34;56.31
35307;BME280;21420;52.196;21.416;2023-09-30T06:32:18;100413.54;;;16.34;56.24
35307;BME280;21420;52.196;21.416;2023-09-30T06:34:44;100416.33;;;16.35;56.42
35307;BME280;21420;52.196;21.416;2023-09-30T06:37:10;100420.55;;;16.39;56.53
35307;BME280;21420;52.196;21.416;2023-09-30T06:39:36;100421.16;;;16.42;56.44
35307;BME280;21420;52.196;21.416;2023-09-30T06:42:02;100429.48;;;16.44;56.45
35307;BME280;21420;52.196;21.416;2023-09-30T06:44:29;100434.98;;;16.48;56.51
35307;BME280;21420;52.196;21.416;2023-09-30T06:46:57;100435.25;;;16.51;56.79
35307;BME280;21420;52.196;21.416;2023-09-30T06:49:23;100435.36;;;16.53;56.40
35307;BME280;21420;52.196;21.416;2023-09-30T06:51:50;100440.09;;;16.53;56.54
35307;BME280;21420;52.196;21.416;2023-09-30T06:54:16;100436.94;;;16.53;56.54
35307;BME280;21420;52.196;21.416;2023-09-30T06:56:43;100437.35;;;16.55;56.73
35307;BME280;21420;52.196;21.416;2023-09-30T06:59:09;100444.85;;;16.55;56.68
35307;BME280;21420;52.196;21.416;2023-09-30T07:01:34;100452.13;;;16.56;56.78
35307;BME280;21420;52.196;21.416;2023-09-30T07:04:00;100453.95;;;16.56;56.75
35307;BME280;21420;52.196;21.416;2023-09-30T07:06:27;100455.00;;;16.58;56.80
35307;BME280;21420;52.196;21.416;2023-09-30T07:08:53;100459.31;;;16.62;57.17
35307;BME280;21420;52.196;21.416;2023-09-30T07:11:29;100462.30;;;16.67;56.92
35307;BME280;21420;52.196;21.416;2023-09-30T07:13:58;100465.52;;;16.72;57.19
35307;BME280;21420;52.196;21.416;2023-09-30T07:16:24;100461.39;;;16.79;57.24
35307;BME280;21420;52.196;21.416;2023-09-30T07:18:50;100458.88;;;16.88;57.15
35307;BME280;21420;52.196;21.416;2023-09-30T07:21:16;100461.04;;;16.90;57.02
35307;BME280;21420;52.196;21.416;2023-09-30T07:23:42;100465.90;;;16.93;57.16
35307;BME280;21420;52.196;21.416;2023-09-30T07:26:08;100463.94;;;17.01;57.30
35307;BME280;21420;52.196;21.416;2023-09-30T07:28:34;100463.71;;;17.09;57.28
35307;BME280;21420;52.196;21.416;2023-09-30T07:31:00;100470.27;;;17.16;57.21
35307;BME280;21420;52.196;21.416;2023-09-30T07:33:26;100478.58;;;17.24;57.33
35307;BME280;21420;52.196;21.416;2023-09-30T07:35:52;100477.65;;;17.33;57.39
35307;BME280;21420;52.196;21.416;2023-09-30T07:38:18;100479.56;;;17.35;57.33
35307;BME280;21420;52.196;21.416;2023-09-30T07:40:44;100480.19;;;17.36;57.25
35307;BME280;21420;52.196;21.416;2023-09-30T07:43:10;100480.67;;;17.36;57.26
35307;BME280;21420;52.196;21.416;2023-09-30T07:45:38;100484.88;;;17.36;57.33
35307;BME280;21420;52.196;21.416;2023-09-30T07:48:07;100483.99;;;17.35;57.29
35307;BME280;21420;52.196;21.416;2023-09-30T07:50:38;100484.20;;;17.34;57.41
35307;BME280;21420;52.196;21.416;2023-09-30T07:53:04;100482.36;;;17.32;57.56
35307;BME280;21420;52.196;21.416;2023-09-30T07:55:30;100482.27;;;17.30;57.58
35307;BME280;21420;52.196;21.416;2023-09-30T07:57:56;100484.33;;;17.29;57.61
35307;BME280;21420;52.196;21.416;2023-09-30T08:00:23;100484.23;;;17.27;57.47
35307;BME280;21420;52.196;21.416;2023-09-30T08:02:49;100483.59;;;17.28;57.80
35307;BME280;21420;52.196;21.416;2023-09-30T08:05:16;100479.34;;;17.29;58.02
35307;BME280;21420;52.196;21.416;2023-09-30T08:07:43;100478.46;;;17.28;57.91
35307;BME280;21420;52.196;21.416;2023-09-30T08:10:09;100476.49;;;17.30;58.18
35307;BME280;21420;52.196;21.416;2023-09-30T08:12:40;100478.66;;;17.32;58.01
35307;BME280;21420;52.196;21.416;2023-09-30T08:15:07;100484.27;;;17.32;58.04
35307;BME280;21420;52.196;21.416;2023-09-30T08:17:33;100488.39;;;17.33;58.18
35307;BME280;21420;52.196;21.416;2023-09-30T08:19:59;100485.40;;;17.35;58.25
35307;BME280;21420;52.196;21.416;2023-09-30T08:22:26;100479.41;;;17.36;58.16
35307;BME280;21420;52.196;21.416;2023-09-30T08:24:54;100481.86;;;17.36;58.44
35307;BME280;21420;52.196;21.416;2023-09-30T08:27:20;100483.55;;;17.39;58.44
35307;BME280;21420;52.196;21.416;2023-09-30T08:29:46;100482.23;;;17.42;58.53
35307;BME280;21420;52.196;21.416;2023-09-30T08:32:12;100476.63;;;17.43;58.38
35307;BME280;21420;52.196;21.416;2023-09-30T08:34:38;100477.84;;;17.43;58.46
35307;BME280;21420;52.196;21.416;2023-09-30T08:37:04;100474.79;;;17.40;58.39
35307;BME280;21420;52.196;21.416;2023-09-30T08:39:30;100476.00;;;17.43;58.45
35307;BME280;21420;52.196;21.416;2023-09-30T08:42:01;100473.89;;;17.45;58.65
35307;BME280;21420;52.196;21.416;2023-09-30T08:44:29;100478.38;;;17.50;58.83
35307;BME280;21420;52.196;21.416;2023-09-30T08:46:56;100476.96;;;17.52;58.75
35307;BME280;21420;52.196;21.416;2023-09-30T08:49:22;100473.77;;;17.57;58.84
35307;BME280;21420;52.196;21.416;2023-09-30T08:51:48;100477.76;;;17.61;58.92
35307;BME280;21420;52.196;21.416;2023-09-30T08:54:15;100475.49;;;17.64;58.85
35307;BME280;21420;52.196;21.416;2023-09-30T08:56:44;100476.21;;;17.74;59.10
35307;BME280;21420;52.196;21.416;2023-09-30T08:59:14;100475.38;;;17.85;59.15
35307;BME280;21420;52.196;21.416;2023-09-30T09:01:40;100477.14;;;17.96;59.25
35307;BME280;21420;52.196;21.416;2023-09-30T09:04:06;100475.57;;;18.08;59.33
35307;BME280;21420;52.196;21.416;2023-09-30T09:06:33;100476.11;;;18.19;59.37
35307;BME280;21420;52.196;21.416;2023-09-30T09:09:18;100477.27;;;18.26;59.51
35307;BME280;21420;52.196;21.416;2023-09-30T09:11:45;100483.39;;;18.29;59.13
35307;BME280;21420;52.196;21.416;2023-09-30T09:14:12;100486.72;;;18.29;59.16
35307;BME280;21420;52.196;21.416;2023-09-30T09:16:54;100486.89;;;18.32;59.27
35307;BME280;21420;52.196;21.416;2023-09-30T09:19:21;100487.14;;;18.34;59.26
35307;BME280;21420;52.196;21.416;2023-09-30T09:21:55;100485.26;;;18.36;59.44
35307;BME280;21420;52.196;21.416;2023-09-30T09:24:32;100487.08;;;18.37;59.48
35307;BME280;21420;52.196;21.416;2023-09-30T09:27:12;100489.46;;;18.36;59.40
35307;BME280;21420;52.196;21.416;2023-09-30T09:29:39;100494.57;;;18.31;59.30
35307;BME280;21420;52.196;21.416;2023-09-30T09:32:16;100493.22;;;18.19;59.32
35307;BME280;21420;52.196;21.416;2023-09-30T09:34:43;100491.73;;;18.10;59.22
35307;BME280;21420;52.196;21.416;2023-09-30T09:37:20;100493.04;;;18.04;59.40
35307;BME280;21420;52.196;21.416;2023-09-30T09:39:50;100495.39;;;18.03;59.53
35307;BME280;21420;52.196;21.416;2023-09-30T09:42:33;100495.88;;;18.04;59.64
35307;BME280;21420;52.196;21.416;2023-09-30T09:45:04;100496.58;;;18.04;59.62
35307;BME280;21420;52.196;21.416;2023-09-30T09:47:32;100495.34;;;18.05;59.89
35307;BME280;21420;52.196;21.416;2023-09-30T09:49:59;100498.43;;;18.06;59.76
35307;BME280;21420;52.196;21.416;2023-09-30T09:52:28;100499.19;;;18.02;59.85
35307;BME280;21420;52.196;21.416;2023-09-30T09:54:56;100498.05;;;17.99;59.86
35307;BME280;21420;52.196;21.416;2023-09-30T09:57:24;100501.92;;;17.97;59.91
35307;BME280;21420;52.196;21.416;2023-09-30T09:59:52;100502.63;;;17.97;59.96
35307;BME280;21420;52.196;21.416;2023-09-30T10:02:19;100503.09;;;17.95;60.07
35307;BME280;21420;52.196;21.416;2023-09-30T10:04:46;100502.30;;;17.95;60.21
35307;BME280;21420;52.196;21.416;2023-09-30T10:07:25;100498.05;;;17.99;60.22
35307;BME280;21420;52.196;21.416;2023-09-30T10:09:52;100507.13;;;18.04;60.44
35307;BME280;21420;52.196;21.416;2023-09-30T10:12:19;100507.61;;;18.06;60.23
35307;BME280;21420;52.196;21.416;2023-09-30T10:14:49;100505.95;;;18.07;60.38
35307;BME280;21420;52.196;21.416;2023-09-30T10:17:15;100509.35;;;18.07;60.40
35307;BME280;21420;52.196;21.416;2023-09-30T10:20:03;100511.73;;;18.08;60.47
35307;BME280;21420;52.196;21.416;2023-09-30T10:22:31;100512.20;;;18.07;60.39
35307;BME280;21420;52.196;21.416;2023-09-30T10:25:00;100513.80;;;18.08;60.46
35307;BME280;21420;52.196;21.416;2023-09-30T10:30:12;100520.55;;;18.20;60.98
35307;BME280;21420;52.196;21.416;2023-09-30T10:35:21;100524.06;;;18.27;60.97
35307;BME280;21420;52.196;21.416;2023-09-30T10:40:49;100534.09;;;18.55;61.20
35307;BME280;21420;52.196;21.416;2023-09-30T10:45:57;100543.63;;;18.61;60.95
35307;BME280;21420;52.196;21.416;2023-09-30T10:50:52;100536.25;;;18.60;61.18
35307;BME280;21420;52.196;21.416;2023-09-30T10:53:18;100537.63;;;18.89;61.85
35307;BME280;21420;52.196;21.416;2023-09-30T10:55:45;100544.39;;;19.29;61.99
35307;BME280;21420;52.196;21.416;2023-09-30T10:58:14;100549.59;;;19.46;61.71
35307;BME280;21420;52.196;21.416;2023-09-30T11:01:00;100550.86;;;19.49;61.62
35307;BME280;21420;52.196;21.416;2023-09-30T11:03:27;100546.68;;;19.84;61.98
35307;BME280;21420;52.196;21.416;2023-09-30T11:05:53;100547.41;;;20.05;61.68
35307;BME280;21420;52.196;21.416;2023-09-30T11:08:37;100544.31;;;20.16;61.64
35307;BME280;21420;52.196;21.416;2023-09-30T11:11:03;100547.95;;;20.38;61.63
35307;BME280;21420;52.196;21.416;2023-09-30T11:13:34;100556.37;;;20.46;61.32
35307;BME280;21420;52.196;21.416;2023-09-30T11:16:03;100557.48;;;20.43;61.10
35307;BME280;21420;52.196;21.416;2023-09-30T11:18:34;100562.64;;;20.53;61.24
35307;BME280;21420;52.196;21.416;2023-09-30T11:21:10;100570.68;;;20.58;61.14
35307;BME280;21420;52.196;21.416;2023-09-30T11:23:37;100576.31;;;20.68;61.20
35307;BME280;21420;52.196;21.416;2023-09-30T11:26:04;100584.06;;;20.82;61.11
35307;BME280;21420;52.196;21.416;2023-09-30T11:28:38;100581.27;;;20.89;60.83
35307;BME280;21420;52.196;21.416;2023-09-30T11:31:08;100584.23;;;20.87;60.69
35307;BME280;21420;52.196;21.416;2023-09-30T11:36:18;100587.23;;;20.91;60.52
35307;BME280;21420;52.196;21.416;2023-09-30T11:38:46;100590.02;;;20.90;60.63
35307;BME280;21420;52.196;21.416;2023-09-30T11:41:13;100596.34;;;21.04;60.77
35307;BME280;21420;52.196;21.416;2023-09-30T11:43:45;100600.61;;;21.12;60.64
35307;BME280;21420;52.196;21.416;2023-09-30T11:46:24;100604.15;;;21.21;60.40
35307;BME280;21420;52.196;21.416;2023-09-30T11:49:01;100613.08;;;21.20;60.27
35307;BME280;21420;52.196;21.416;2023-09-30T11:51:28;100612.52;;;21.18;60.24
35307;BME280;21420;52.196;21.416;2023-09-30T11:53:55;100612.52;;;20.87;59.36
35307;BME280;21420;52.196;21.416;2023-09-30T11:56:23;100620.90;;;20.36;58.84
35307;BME280;21420;52.196;21.416;2023-09-30T11:58:56;100617.61;;;19.78;58.49
35307;BME280;21420;52.196;21.416;2023-09-30T12:01:22;100620.10;;;19.42;58.97
35307;BME280;21420;52.196;21.416;2023-09-30T12:03:51;100620.55;;;19.78;60.33
35307;BME280;21420;52.196;21.416;2023-09-30T12:06:18;100625.09;;;20.18;60.44
35307;BME280;21420;52.196;21.416;2023-09-30T12:08:43;100628.19;;;20.33;60.25
35307;BME280;21420;52.196;21.416;2023-09-30T12:11:11;100627.25;;;20.50;60.36
35307;BME280;21420;52.196;21.416;2023-09-30T12:13:39;100636.57;;;20.58;60.04
35307;BME280;21420;52.196;21.416;2023-09-30T12:16:05;100641.34;;;20.57;59.94
35307;BME280;21420;52.196;21.416;2023-09-30T12:18:31;100638.47;;;20.67;59.92
35307;BME280;21420;52.196;21.416;2023-09-30T12:20:57;100645.70;;;20.74;59.69
35307;BME280;21420;52.196;21.416;2023-09-30T12:23:23;100646.98;;;20.62;59.20
35307;BME280;21420;52.196;21.416;2023-09-30T12:25:49;100647.17;;;20.17;58.66
35307;BME280;21420;52.196;21.416;2023-09-30T12:28:36;100647.55;;;19.79;58.64
35307;BME280;21420;52.196;21.416;2023-09-30T12:31:02;100644.88;;;19.50;58.74
35307;BME280;21420;52.196;21.416;2023-09-30T12:33:29;100643.11;;;19.28;58.76
35307;BME280;21420;52.196;21.416;2023-09-30T12:35:56;100644.67;;;19.09;58.83
35307;BME280;21420;52.196;21.416;2023-09-30T12:38:24;100642.41;;;18.89;58.80
35307;BME280;21420;52.196;21.416;2023-09-30T12:40:52;100646.74;;;18.77;58.82
35307;BME280;21420;52.196;21.416;2023-09-30T12:43:21;100647.34;;;18.62;58.96
35307;BME280;21420;52.196;21.416;2023-09-30T12:45:48;100652.13;;;18.48;58.89
35307;BME280;21420;52.196;21.416;2023-09-30T12:48:14;100649.25;;;18.34;58.95
35307;BME280;21420;52.196;21.416;2023-09-30T12:50:44;100648.10;;;18.20;58.95
35307;BME280;21420;52.196;21.416;2023-09-30T12:53:10;100656.37;;;18.08;59.14
35307;BME280;21420;52.196;21.416;2023-09-30T12:55:36;100655.20;;;18.02;59.16
35307;BME280;21420;52.196;21.416;2023-09-30T12:58:02;100658.20;;;18.03;59.32
35307;BME280;21420;52.196;21.416;2023-09-30T13:00:28;100658.16;;;18.06;59.57